createdAt,value
2022-11-28T00:01:20.673Z,23.90
2022-11-28T00:03:48.165Z,22.75
2022-11-28T00:06:15.719Z,23.40
2022-11-28T00:08:43.200Z,25.60
2022-11-28T00:11:11.664Z,22.60
2022-11-28T00:13:39.061Z,24.75
2022-11-28T00:16:07.587Z,25.38
2022-11-28T00:18:34.972Z,23.80
2022-11-28T00:21:06.946Z,24.75
2022-11-28T00:23:34.492Z,24.30
2022-11-28T00:26:10.218Z,22.95
2022-11-28T00:28:37.834Z,25.20
2022-11-28T00:31:05.257Z,23.85
2022-11-28T00:33:33.098Z,22.00
2022-11-28T00:36:01.385Z,25.67
2022-11-28T00:38:29.108Z,25.20
2022-11-28T00:41:07.123Z,26.80
2022-11-28T00:43:34.567Z,21.85
2022-11-28T00:46:02.571Z,26.85
2022-11-28T00:48:29.936Z,24.33
2022-11-28T00:51:10.259Z,25.42
2022-11-28T00:53:37.631Z,26.40
2022-11-28T00:56:05.773Z,23.50
2022-11-28T00:58:33.834Z,24.45
2022-11-28T01:01:01.352Z,25.33
2022-11-28T01:03:28.753Z,25.73
2022-11-28T01:05:56.061Z,25.40
2022-11-28T01:08:23.348Z,25.20
2022-11-28T01:10:50.627Z,25.92
2022-11-28T01:13:17.924Z,23.65
2022-11-28T01:15:45.210Z,23.95
2022-11-28T01:18:12.544Z,25.27
2022-11-28T01:20:39.901Z,26.10
2022-11-28T01:23:07.190Z,25.08
2022-11-28T01:25:35.128Z,25.70
2022-11-28T01:28:02.487Z,24.23
2022-11-28T01:30:29.821Z,27.02
2022-11-28T01:32:57.138Z,23.13
2022-11-28T01:35:24.485Z,26.80
2022-11-28T01:37:51.806Z,24.95
2022-11-28T01:40:19.135Z,28.17
2022-11-28T01:42:46.426Z,26.80
2022-11-28T01:45:23.152Z,24.15
2022-11-28T01:47:51.056Z,27.02
2022-11-28T01:50:18.466Z,25.55
2022-11-28T01:52:47.064Z,25.73
2022-11-28T01:55:14.878Z,24.30
2022-11-28T01:57:42.331Z,28.52
2022-11-28T02:00:17.248Z,24.95
2022-11-28T02:03:05.814Z,29.45
2022-11-28T02:05:33.114Z,28.90
2022-11-28T02:08:00.441Z,32.42
2022-11-28T02:11:09.585Z,26.88
2022-11-28T02:13:55.737Z,30.58
2022-11-28T02:16:26.020Z,26.48
2022-11-28T02:18:53.334Z,28.10
2022-11-28T02:21:42.020Z,31.50
2022-11-28T02:24:36.624Z,26.48
2022-11-28T02:27:29.151Z,26.70
2022-11-28T02:30:16.133Z,26.00
2022-11-28T02:32:46.370Z,27.42
2022-11-28T02:35:28.673Z,25.92
2022-11-28T02:38:35.569Z,27.23
2022-11-28T02:41:12.668Z,26.90
2022-11-28T02:44:11.119Z,26.05
2022-11-28T02:46:47.819Z,27.50
2022-11-28T02:49:28.509Z,27.85
2022-11-28T02:52:04.704Z,24.17
2022-11-28T02:54:32.491Z,27.05
2022-11-28T02:56:59.891Z,26.90
2022-11-28T02:59:32.232Z,27.70
2022-11-28T03:02:00.733Z,27.00
2022-11-28T03:04:49.839Z,26.17
2022-11-28T03:07:41.187Z,28.40
2022-11-28T03:10:19.834Z,26.77
2022-11-28T03:13:02.974Z,25.73
2022-11-28T03:15:42.329Z,27.92
2022-11-28T03:18:15.916Z,26.15
2022-11-28T03:21:13.974Z,19.35
2022-11-28T03:23:52.406Z,25.42
2022-11-28T03:26:33.443Z,26.60
2022-11-28T03:29:11.527Z,26.70
2022-11-28T03:32:03.305Z,27.02
2022-11-28T03:34:35.923Z,26.27
2022-11-28T03:37:17.747Z,27.33
2022-11-28T03:39:48.051Z,27.38
2022-11-28T03:42:19.337Z,26.95
2022-11-28T03:44:56.455Z,27.35
2022-11-28T03:47:28.591Z,25.65
2022-11-28T03:49:56.882Z,27.83
2022-11-28T03:52:29.634Z,30.27
2022-11-28T03:55:02.961Z,29.00
2022-11-28T03:58:19.503Z,26.83
2022-11-28T04:01:02.976Z,25.95
2022-11-28T04:03:41.564Z,26.65
2022-11-28T04:06:18.807Z,26.63
2022-11-28T04:08:50.166Z,26.38
2022-11-28T04:11:20.602Z,28.05
2022-11-28T04:13:51.148Z,25.80
2022-11-28T04:16:50.558Z,28.85
2022-11-28T04:19:26.091Z,26.80
2022-11-28T04:22:18.926Z,28.67
2022-11-28T04:24:58.049Z,28.35
2022-11-28T04:27:28.838Z,27.48
2022-11-28T04:29:58.582Z,25.92
2022-11-28T04:32:25.922Z,27.95
2022-11-28T04:34:55.460Z,31.77
2022-11-28T04:37:23.326Z,25.98
2022-11-28T04:39:50.720Z,28.17
2022-11-28T04:42:40.993Z,29.77
2022-11-28T04:45:39.089Z,29.13
2022-11-28T04:48:06.478Z,29.90
2022-11-28T04:51:00.121Z,30.52
2022-11-28T04:53:48.404Z,27.92
2022-11-28T04:56:31.685Z,27.10
2022-11-28T04:58:59.059Z,28.70
2022-11-28T05:01:27.541Z,27.05
2022-11-28T05:03:54.994Z,29.15
2022-11-28T05:06:30.305Z,29.33
2022-11-28T05:08:57.589Z,33.88
2022-11-28T05:11:25.473Z,32.80
2022-11-28T05:13:53.080Z,37.38
2022-11-28T05:16:20.529Z,33.75
2022-11-28T05:18:47.954Z,31.92
2022-11-28T05:21:15.244Z,31.75
2022-11-28T05:23:43.633Z,31.33
2022-11-28T05:26:20.895Z,32.95
2022-11-28T05:28:50.096Z,32.97
2022-11-28T05:31:19.046Z,30.05
2022-11-28T05:33:46.422Z,32.22
2022-11-28T05:36:14.286Z,33.30
2022-11-28T05:38:42.004Z,32.08
2022-11-28T05:41:09.554Z,35.08
2022-11-28T05:43:36.946Z,31.23
2022-11-28T05:46:05.920Z,32.78
2022-11-28T05:48:33.311Z,30.75
2022-11-28T05:51:00.660Z,33.97
2022-11-28T05:53:27.994Z,33.25
2022-11-28T05:55:55.272Z,31.13
2022-11-28T05:58:22.534Z,32.70
2022-11-28T06:00:49.968Z,28.83
2022-11-28T06:03:17.261Z,32.38
2022-11-28T06:05:44.671Z,33.08
2022-11-28T06:08:12.341Z,32.70
2022-11-28T06:10:39.975Z,35.17
2022-11-28T06:13:07.332Z,31.25
2022-11-28T06:15:37.869Z,29.27
2022-11-28T06:18:05.989Z,27.23
2022-11-28T06:20:35.105Z,30.23
2022-11-28T06:23:02.409Z,29.92
2022-11-28T06:25:29.697Z,30.45
2022-11-28T06:27:57.008Z,29.80
2022-11-28T06:30:24.281Z,32.40
2022-11-28T06:32:51.591Z,34.67
2022-11-28T06:35:18.874Z,29.60
2022-11-28T06:37:46.192Z,30.08
2022-11-28T06:40:13.721Z,31.00
2022-11-28T06:42:41.008Z,35.38
2022-11-28T06:45:09.557Z,33.00
2022-11-28T06:47:36.874Z,35.40
2022-11-28T06:50:04.516Z,34.50
2022-11-28T06:52:31.786Z,32.03
2022-11-28T06:54:59.135Z,31.10
2022-11-28T06:57:26.756Z,33.83
2022-11-28T06:59:54.058Z,30.50
2022-11-28T07:02:22.843Z,35.40
2022-11-28T07:04:50.187Z,31.08
2022-11-28T07:07:17.665Z,36.70
2022-11-28T07:09:45.293Z,34.35
2022-11-28T07:12:13.245Z,38.17
2022-11-28T07:14:40.593Z,31.38
2022-11-28T07:17:08.076Z,36.22
2022-11-28T07:19:35.466Z,32.42
2022-11-28T07:22:02.784Z,34.40
2022-11-28T07:24:30.211Z,33.47
2022-11-28T07:26:57.582Z,36.15
2022-11-28T07:29:24.921Z,44.25
2022-11-28T07:31:52.271Z,39.50
2022-11-28T07:34:19.661Z,40.30
2022-11-28T07:36:46.951Z,34.72
2022-11-28T07:39:14.317Z,35.78
2022-11-28T07:41:41.665Z,31.17
2022-11-28T07:44:09.846Z,30.45
2022-11-28T07:46:37.216Z,30.02
2022-11-28T07:49:04.583Z,29.35
2022-11-28T07:51:33.148Z,25.85
2022-11-28T07:54:00.684Z,27.30
2022-11-28T07:56:50.078Z,23.35
2022-11-28T07:59:17.296Z,30.60
2022-11-28T08:01:44.635Z,26.20
2022-11-28T08:04:12.051Z,25.02
2022-11-28T08:06:40.718Z,21.80
2022-11-28T08:09:08.276Z,25.10
2022-11-28T08:11:35.895Z,26.75
2022-11-28T08:14:03.339Z,23.65
2022-11-28T08:16:30.772Z,24.98
2022-11-28T08:19:00.632Z,26.25
2022-11-28T08:21:29.832Z,31.05
2022-11-28T08:23:59.341Z,28.33
2022-11-28T08:26:30.344Z,29.67
2022-11-28T08:28:59.224Z,29.38
2022-11-28T08:31:37.121Z,25.20
2022-11-28T08:34:06.540Z,26.38
2022-11-28T08:36:33.765Z,25.00
2022-11-28T08:41:48.392Z,26.52
2022-11-28T08:44:16.146Z,23.02
2022-11-28T08:46:43.444Z,25.80
2022-11-28T08:49:10.625Z,23.55
2022-11-28T08:51:37.833Z,24.98
2022-11-28T08:54:05.244Z,22.73
2022-11-28T08:56:32.555Z,21.42
2022-11-28T08:59:00.022Z,24.25
2022-11-28T09:01:27.550Z,20.33
2022-11-28T09:03:55.214Z,21.17
2022-11-28T09:06:22.899Z,20.40
2022-11-28T09:08:50.488Z,23.77
2022-11-28T09:11:19.031Z,21.27
2022-11-28T09:13:46.351Z,20.63
2022-11-28T09:16:14.412Z,19.60
2022-11-28T09:18:41.890Z,18.65
2022-11-28T09:21:10.252Z,21.38
2022-11-28T09:23:38.124Z,20.25
2022-11-28T09:26:10.071Z,20.25
2022-11-28T09:28:37.546Z,21.75
2022-11-28T09:31:05.505Z,18.00
2022-11-28T09:33:33.153Z,18.10
2022-11-28T09:36:05.175Z,18.27
2022-11-28T09:38:32.500Z,16.70
2022-11-28T09:41:00.942Z,17.90
2022-11-28T09:43:38.329Z,15.73
2022-11-28T09:46:08.319Z,15.45
2022-11-28T09:48:37.934Z,18.45
2022-11-28T09:51:28.129Z,14.15
2022-11-28T09:54:15.436Z,18.00
2022-11-28T09:56:43.627Z,18.38
2022-11-28T09:59:25.324Z,19.55
2022-11-28T10:02:20.423Z,17.85
2022-11-28T10:05:03.003Z,16.88
2022-11-28T10:07:54.923Z,18.55
2022-11-28T10:10:44.070Z,18.17
2022-11-28T10:13:32.697Z,15.38
2022-11-28T10:16:30.352Z,20.25
2022-11-28T10:19:00.391Z,16.13
2022-11-28T10:21:38.857Z,20.88
2022-11-28T10:24:31.596Z,15.70
2022-11-28T10:26:59.551Z,15.18
2022-11-28T10:29:46.253Z,15.38
2022-11-28T10:32:31.826Z,17.92
2022-11-28T10:35:01.921Z,15.98
2022-11-28T10:37:31.356Z,16.05
2022-11-28T10:40:05.494Z,16.33
2022-11-28T10:42:35.537Z,10.75
2022-11-28T10:45:12.873Z,18.15
2022-11-28T10:47:52.050Z,14.60
2022-11-28T10:50:30.810Z,19.48
2022-11-28T10:53:19.282Z,18.20
2022-11-28T10:55:55.670Z,15.75
2022-11-28T10:58:24.580Z,16.08
2022-11-28T11:00:55.401Z,17.23
2022-11-28T11:03:29.171Z,13.27
2022-11-28T11:05:56.495Z,15.55
2022-11-28T11:08:29.114Z,16.42
2022-11-28T11:11:07.260Z,14.02
2022-11-28T11:13:35.927Z,14.95
2022-11-28T11:16:05.828Z,15.00
2022-11-28T11:18:46.629Z,22.55
2022-11-28T11:21:23.884Z,21.95
2022-11-28T11:24:18.953Z,15.85
2022-11-28T11:26:49.324Z,14.63
2022-11-28T11:29:28.585Z,16.27
2022-11-28T11:31:55.919Z,16.88
2022-11-28T11:34:23.531Z,15.50
2022-11-28T11:36:50.898Z,14.77
2022-11-28T11:39:25.569Z,15.93
2022-11-28T11:42:01.972Z,19.48
2022-11-28T11:44:36.433Z,18.05
2022-11-28T11:47:08.570Z,13.38
2022-11-28T11:49:43.587Z,11.43
2022-11-28T11:52:27.051Z,12.73
2022-11-28T11:54:57.472Z,13.00
2022-11-28T11:57:37.208Z,13.02
2022-11-28T12:00:14.376Z,11.45
2022-11-28T12:03:10.179Z,13.10
2022-11-28T12:06:13.782Z,12.25
2022-11-28T12:08:52.681Z,9.27
2022-11-28T12:11:43.938Z,11.52
2022-11-28T12:14:29.260Z,8.93
2022-11-28T12:17:40.879Z,13.02
2022-11-28T12:20:29.554Z,11.00
2022-11-28T12:23:18.811Z,12.70
2022-11-28T12:25:58.182Z,19.77
2022-11-28T12:28:56.521Z,14.88
2022-11-28T12:31:51.818Z,15.40
2022-11-28T12:34:41.137Z,21.17
2022-11-28T12:37:42.026Z,19.33
2022-11-28T12:40:17.536Z,13.70
2022-11-28T12:43:15.603Z,17.42
2022-11-28T12:46:01.916Z,18.60
2022-11-28T12:49:00.488Z,20.80
2022-11-28T12:52:12.938Z,14.45
2022-11-28T12:54:53.079Z,12.70
2022-11-28T12:57:45.480Z,16.40
2022-11-28T13:00:19.849Z,13.48
2022-11-28T13:03:11.812Z,13.02
2022-11-28T13:05:58.111Z,15.43
2022-11-28T13:08:58.269Z,14.77
2022-11-28T13:11:51.932Z,16.70
2022-11-28T13:14:48.623Z,11.80
2022-11-28T13:17:43.961Z,13.15
2022-11-28T13:20:23.229Z,10.10
2022-11-28T13:22:53.194Z,11.07
2022-11-28T13:25:55.099Z,14.05
2022-11-28T13:28:42.456Z,13.88
2022-11-28T13:31:32.641Z,14.80
2022-11-28T13:33:59.904Z,16.45
2022-11-28T13:39:57.867Z,14.45
2022-11-28T13:45:30.247Z,16.35
2022-11-28T13:48:00.702Z,14.82
2022-11-28T13:50:35.934Z,15.65
2022-11-28T13:53:23.906Z,16.48
2022-11-28T13:56:17.257Z,18.63
2022-11-28T13:58:54.091Z,18.60
2022-11-28T14:01:24.988Z,16.45
2022-11-28T14:03:52.217Z,16.83
2022-11-28T14:06:23.605Z,17.45
2022-11-28T14:09:16.374Z,17.50
2022-11-28T14:12:02.183Z,17.85
2022-11-28T14:14:47.480Z,20.70
2022-11-28T14:17:33.167Z,25.25
2022-11-28T14:20:18.883Z,19.77
2022-11-28T14:22:53.436Z,24.75
2022-11-28T14:25:22.898Z,21.02
2022-11-28T14:27:54.620Z,26.08
2022-11-28T14:30:38.818Z,29.90
2022-11-28T14:33:16.238Z,17.60
2022-11-28T14:35:53.021Z,18.27
2022-11-28T14:38:35.312Z,25.30
2022-11-28T14:41:11.668Z,20.98
2022-11-28T14:43:48.580Z,22.42
2022-11-28T14:46:15.820Z,23.52
2022-11-28T14:48:58.183Z,24.85
2022-11-28T14:51:47.367Z,13.55
2022-11-28T14:54:19.052Z,17.70
2022-11-28T14:56:46.361Z,15.18
2022-11-28T14:59:13.590Z,13.30
2022-11-28T15:01:49.856Z,17.60
2022-11-28T15:04:39.974Z,21.52
2022-11-28T15:07:18.248Z,18.90
2022-11-28T15:09:51.690Z,13.23
2022-11-28T15:12:28.182Z,16.48
2022-11-28T15:14:56.163Z,16.15
2022-11-28T15:17:28.429Z,17.98
2022-11-28T15:19:55.990Z,15.32
2022-11-28T15:22:33.495Z,16.80
2022-11-28T15:25:00.767Z,18.25
2022-11-28T15:27:28.869Z,18.27
2022-11-28T15:30:01.445Z,18.38
2022-11-28T15:32:29.791Z,20.48
2022-11-28T15:35:01.441Z,15.55
2022-11-28T15:37:33.252Z,17.23
2022-11-28T15:40:01.605Z,21.65
2022-11-28T15:42:31.774Z,16.70
2022-11-28T15:45:18.873Z,14.43
2022-11-28T15:47:46.679Z,17.73
2022-11-28T15:50:18.212Z,13.50
2022-11-28T15:52:54.919Z,15.02
2022-11-28T15:55:22.798Z,17.80
2022-11-28T15:57:50.130Z,11.95
2022-11-28T16:00:18.987Z,17.20
2022-11-28T16:02:46.727Z,14.18
2022-11-28T16:05:21.877Z,16.63
2022-11-28T16:07:50.182Z,15.52
2022-11-28T16:10:35.214Z,17.55
2022-11-28T16:13:03.357Z,16.15
2022-11-28T16:15:30.669Z,17.55
2022-11-28T16:17:58.004Z,15.75
2022-11-28T16:20:27.113Z,14.43
2022-11-28T16:23:09.672Z,17.33
2022-11-28T16:25:37.969Z,18.20
2022-11-28T16:28:05.951Z,17.42
2022-11-28T16:30:42.690Z,21.73
2022-11-28T16:33:43.003Z,19.45
2022-11-28T16:36:20.516Z,17.52
2022-11-28T16:38:48.562Z,18.00
2022-11-28T16:41:25.436Z,19.85
2022-11-28T16:43:56.917Z,24.77
2022-11-28T16:46:30.659Z,23.35
2022-11-28T16:48:58.624Z,20.55
2022-11-28T16:51:25.852Z,16.83
2022-11-28T16:53:59.394Z,21.15
2022-11-28T16:56:29.876Z,17.63
2022-11-28T16:59:17.225Z,20.40
2022-11-28T17:01:46.166Z,17.08
2022-11-28T17:04:22.420Z,16.65
2022-11-28T17:06:50.088Z,14.55
2022-11-28T17:09:17.464Z,21.67
2022-11-28T17:12:04.189Z,16.85
2022-11-28T17:14:31.553Z,18.80
2022-11-28T17:17:01.830Z,18.70
2022-11-28T17:19:29.250Z,16.23
2022-11-28T17:21:57.850Z,16.42
2022-11-28T17:24:29.986Z,17.00
2022-11-28T17:26:57.345Z,20.00
2022-11-28T17:29:28.580Z,17.63
2022-11-28T17:31:58.727Z,19.20
2022-11-28T17:34:33.265Z,19.23
2022-11-28T17:37:01.083Z,16.73
2022-11-28T17:39:28.825Z,17.65
2022-11-28T17:41:59.361Z,15.90
2022-11-28T17:44:30.991Z,19.45
2022-11-28T17:47:00.669Z,18.58
2022-11-28T17:49:28.900Z,19.67
2022-11-28T17:51:56.567Z,19.48
2022-11-28T17:54:24.864Z,17.13
2022-11-28T17:56:55.124Z,15.88
2022-11-28T17:59:23.350Z,17.55
2022-11-28T18:01:50.888Z,21.52
2022-11-28T18:04:23.971Z,18.48
2022-11-28T18:06:51.282Z,15.65
2022-11-28T18:09:18.628Z,17.98
2022-11-28T18:11:48.530Z,18.88
2022-11-28T18:14:19.209Z,23.85
2022-11-28T18:16:47.240Z,19.58
2022-11-28T18:19:14.595Z,22.70
2022-11-28T18:21:42.103Z,20.50
2022-11-28T18:24:09.939Z,17.23
2022-11-28T18:26:37.792Z,17.35
2022-11-28T18:29:06.859Z,18.13
2022-11-28T18:31:34.469Z,17.02
2022-11-28T18:34:05.879Z,17.45
2022-11-28T18:36:35.920Z,17.27
2022-11-28T18:39:05.339Z,17.25
2022-11-28T18:41:33.017Z,19.52
2022-11-28T18:44:01.877Z,17.85
2022-11-28T18:46:29.625Z,23.92
2022-11-28T18:48:57.088Z,17.95
2022-11-28T18:51:29.208Z,19.35
2022-11-28T18:53:57.225Z,20.63
2022-11-28T18:56:25.187Z,17.65
2022-11-28T18:58:53.403Z,16.80
2022-11-28T19:01:22.794Z,20.00
2022-11-28T19:03:51.296Z,21.27
2022-11-28T19:06:19.001Z,18.42
2022-11-28T19:08:46.672Z,18.55
2022-11-28T19:11:15.879Z,30.23
2022-11-28T19:13:47.031Z,18.33
2022-11-28T19:16:20.663Z,19.77
2022-11-28T19:18:48.327Z,17.63
2022-11-28T19:21:17.938Z,20.17
2022-11-28T19:23:47.137Z,19.75
2022-11-28T19:26:16.153Z,24.80
2022-11-28T19:28:43.653Z,21.17
2022-11-28T19:31:20.435Z,24.85
2022-11-28T19:34:00.249Z,31.17
2022-11-28T19:36:32.737Z,27.50
2022-11-28T19:39:00.288Z,26.55
2022-11-28T19:41:27.812Z,24.38
2022-11-28T19:43:55.282Z,26.05
2022-11-28T19:46:22.807Z,28.35
2022-11-28T19:48:51.712Z,28.02
2022-11-28T19:51:20.288Z,25.27
2022-11-28T19:53:47.569Z,28.73
2022-11-28T19:56:19.946Z,23.88
2022-11-28T19:58:47.462Z,26.20
2022-11-28T20:01:17.154Z,25.50
2022-11-28T20:03:47.597Z,22.75
2022-11-28T20:06:16.904Z,25.70
2022-11-28T20:08:44.539Z,27.52
2022-11-28T20:11:22.006Z,28.75
2022-11-28T20:13:49.485Z,31.70
2022-11-28T20:16:17.662Z,26.17
2022-11-28T20:18:45.146Z,25.25
2022-11-28T20:21:15.622Z,28.77
2022-11-28T20:23:53.705Z,28.25
2022-11-28T20:26:23.712Z,26.75
2022-11-28T20:28:51.044Z,27.60
2022-11-28T20:31:47.898Z,26.27
2022-11-28T20:34:18.721Z,24.77
2022-11-28T20:36:52.673Z,26.58
2022-11-28T20:39:20.125Z,27.13
2022-11-28T20:41:47.492Z,28.95
2022-11-28T20:44:15.077Z,23.60
2022-11-28T20:46:44.014Z,25.35
2022-11-28T20:49:11.379Z,25.50
2022-11-28T20:51:38.758Z,27.52
2022-11-28T20:54:06.404Z,24.55
2022-11-28T20:56:57.894Z,31.88
2022-11-28T20:59:23.993Z,21.83
2022-11-28T21:01:51.389Z,23.92
2022-11-28T21:04:18.865Z,24.92
2022-11-28T21:06:47.257Z,25.85
2022-11-28T21:09:14.755Z,26.60
2022-11-28T21:11:56.730Z,28.88
2022-11-28T21:14:25.212Z,26.52
2022-11-28T21:16:52.575Z,32.28
2022-11-28T21:19:19.908Z,33.42
2022-11-28T21:21:47.291Z,32.22
2022-11-28T21:24:14.777Z,27.73
2022-11-28T21:26:45.311Z,27.13
2022-11-28T21:31:44.447Z,25.88
2022-11-28T21:34:16.886Z,28.55
2022-11-28T21:36:44.502Z,23.95
2022-11-28T21:39:16.738Z,26.70
2022-11-28T21:41:44.015Z,25.08
2022-11-28T21:44:11.409Z,25.05
2022-11-28T21:46:38.794Z,22.90
2022-11-28T21:49:06.132Z,24.60
2022-11-28T21:51:38.039Z,27.40
2022-11-28T21:54:06.252Z,25.48
2022-11-28T21:56:33.976Z,24.65
2022-11-28T21:59:01.427Z,27.33
2022-11-28T22:01:29.444Z,26.30
2022-11-28T22:04:02.133Z,24.17
2022-11-28T22:06:30.789Z,24.70
2022-11-28T22:08:58.102Z,22.98
2022-11-28T22:11:25.668Z,21.17
2022-11-28T22:13:53.009Z,22.88
2022-11-28T22:16:29.880Z,25.35
2022-11-28T22:18:59.479Z,25.23
2022-11-28T22:24:14.320Z,24.20
2022-11-28T22:26:41.892Z,25.80
2022-11-28T22:29:09.178Z,26.95
2022-11-28T22:31:36.694Z,24.08
2022-11-28T22:34:04.267Z,22.25
2022-11-28T22:36:33.357Z,23.25
2022-11-28T22:39:01.126Z,24.05
2022-11-28T22:41:29.780Z,21.52
2022-11-28T22:44:00.568Z,20.73
2022-11-28T22:46:28.575Z,21.55
2022-11-28T22:48:56.024Z,24.88
2022-11-28T22:51:24.718Z,22.52
2022-11-28T22:53:59.431Z,18.77
2022-11-28T22:56:28.268Z,22.98
2022-11-28T22:58:55.732Z,25.33
2022-11-28T23:01:25.655Z,20.70
2022-11-28T23:03:53.598Z,20.20
2022-11-28T23:06:23.145Z,21.45
2022-11-28T23:08:55.668Z,24.90
2022-11-28T23:11:25.606Z,23.10
2022-11-28T23:13:53.213Z,21.35
2022-11-28T23:16:20.538Z,18.33
2022-11-28T23:18:50.053Z,19.50
2022-11-28T23:21:18.325Z,20.90
2022-11-28T23:23:46.119Z,20.25
2022-11-28T23:26:15.497Z,18.98
2022-11-28T23:28:43.036Z,20.50
2022-11-28T23:31:12.438Z,19.38
2022-11-28T23:33:39.968Z,18.17
2022-11-28T23:36:15.450Z,17.88
2022-11-28T23:38:43.421Z,12.95
2022-11-28T23:41:10.887Z,19.40
2022-11-28T23:43:38.272Z,21.15
2022-11-28T23:46:06.068Z,23.17
2022-11-28T23:48:33.460Z,19.73
2022-11-28T23:51:00.776Z,21.50
2022-11-28T23:53:28.036Z,22.73
2022-11-28T23:55:55.298Z,18.25
2022-11-28T23:58:22.574Z,18.50
